sensor_id;sensor_type;location;lat;lon;timestamp;temperature;humidity
19864;DHT22;10094;48.820;9.226;2023-06-22T00:01:25;22.20;99.90
19864;DHT22;10094;48.820;9.226;2023-06-22T00:08:07;22.30;99.90
19864;DHT22;10094;48.820;9.226;2023-06-22T00:14:50;22.20;99.90
19864;DHT22;10094;48.820;9.226;2023-06-22T00:21:33;22.20;99.90
19864;DHT22;10094;48.820;9.226;2023-06-22T00:28:15;22.10;99.90
19864;DHT22;10094;48.820;9.226;2023-06-22T00:34:58;21.90;99.90
19864;DHT22;10094;48.820;9.226;2023-06-22T00:41:40;21.70;99.90
19864;DHT22;10094;48.820;9.226;2023-06-22T00:48:23;21.70;99.90
19864;DHT22;10094;48.820;9.226;2023-06-22T00:55:05;21.70;99.90
19864;DHT22;10094;48.820;9.226;2023-06-22T01:01:49;21.60;99.90
19864;DHT22;10094;48.820;9.226;2023-06-22T01:08:57;21.70;99.90
19864;DHT22;10094;48.820;9.226;2023-06-22T01:16:05;21.30;99.90
19864;DHT22;10094;48.820;9.226;2023-06-22T01:23:17;21.30;99.90
19864;DHT22;10094;48.820;9.226;2023-06-22T01:30:05;21.30;99.90
19864;DHT22;10094;48.820;9.226;2023-06-22T01:36:51;21.30;99.90
19864;DHT22;10094;48.820;9.226;2023-06-22T01:43:35;21.30;99.90
19864;DHT22;10094;48.820;9.226;2023-06-22T01:50:18;21.40;99.90
19864;DHT22;10094;48.820;9.226;2023-06-22T01:57:01;21.30;99.90
19864;DHT22;10094;48.820;9.226;2023-06-22T02:03:48;21.20;99.90
19864;DHT22;10094;48.820;9.226;2023-06-22T02:10:36;21.30;99.90
19864;DHT22;10094;48.820;9.226;2023-06-22T02:17:19;21.20;99.90
19864;DHT22;10094;48.820;9.226;2023-06-22T02:24:02;21.20;99.90
19864;DHT22;10094;48.820;9.226;2023-06-22T02:30:45;21.00;99.90
19864;DHT22;10094;48.820;9.226;2023-06-22T02:37:27;20.90;99.90
19864;DHT22;10094;48.820;9.226;2023-06-22T02:44:11;20.80;99.90
19864;DHT22;10094;48.820;9.226;2023-06-22T02:50:54;20.60;99.90
19864;DHT22;10094;48.820;9.226;2023-06-22T02:57:37;20.40;99.90
19864;DHT22;10094;48.820;9.226;2023-06-22T03:04:20;20.50;99.90
19864;DHT22;10094;48.820;9.226;2023-06-22T03:11:02;20.40;99.90
19864;DHT22;10094;48.820;9.226;2023-06-22T03:17:45;20.30;99.90
19864;DHT22;10094;48.820;9.226;2023-06-22T03:24:29;20.40;99.90
19864;DHT22;10094;48.820;9.226;2023-06-22T03:31:11;20.60;99.90
19864;DHT22;10094;48.820;9.226;2023-06-22T03:37:55;20.50;99.90
19864;DHT22;10094;48.820;9.226;2023-06-22T03:44:38;20.60;99.90
19864;DHT22;10094;48.820;9.226;2023-06-22T03:51:20;20.80;99.90
19864;DHT22;10094;48.820;9.226;2023-06-22T03:58:03;20.50;99.90
19864;DHT22;10094;48.820;9.226;2023-06-22T04:04:48;20.40;99.90
19864;DHT22;10094;48.820;9.226;2023-06-22T04:11:30;20.80;99.90
19864;DHT22;10094;48.820;9.226;2023-06-22T04:18:13;20.80;99.90
19864;DHT22;10094;48.820;9.226;2023-06-22T04:24:55;21.30;99.90
19864;DHT22;10094;48.820;9.226;2023-06-22T04:31:39;21.50;99.90
19864;DHT22;10094;48.820;9.226;2023-06-22T04:38:21;21.50;99.90
19864;DHT22;10094;48.820;9.226;2023-06-22T04:45:04;21.40;99.90
19864;DHT22;10094;48.820;9.226;2023-06-22T04:51:47;21.60;99.90
19864;DHT22;10094;48.820;9.226;2023-06-22T04:58:30;22.30;99.90
19864;DHT22;10094;48.820;9.226;2023-06-22T05:05:15;23.80;99.90
19864;DHT22;10094;48.820;9.226;2023-06-22T05:11:57;26.30;99.90
19864;DHT22;10094;48.820;9.226;2023-06-22T05:18:42;28.00;99.90
19864;DHT22;10094;48.820;9.226;2023-06-22T05:25:25;27.90;99.90
19864;DHT22;10094;48.820;9.226;2023-06-22T05:32:09;28.50;99.90
19864;DHT22;10094;48.820;9.226;2023-06-22T05:38:52;28.20;99.90
19864;DHT22;10094;48.820;9.226;2023-06-22T05:45:35;27.50;99.90
19864;DHT22;10094;48.820;9.226;2023-06-22T05:52:17;29.00;99.90
19864;DHT22;10094;48.820;9.226;2023-06-22T05:58:59;30.30;98.80
19864;DHT22;10094;48.820;9.226;2023-06-22T06:05:42;30.30;98.70
19864;DHT22;10094;48.820;9.226;2023-06-22T06:12:28;30.30;98.90
19864;DHT22;10094;48.820;9.226;2023-06-22T06:19:10;29.50;99.90
19864;DHT22;10094;48.820;9.226;2023-06-22T06:25:53;28.80;99.90
19864;DHT22;10094;48.820;9.226;2023-06-22T06:32:35;30.30;99.40
19864;DHT22;10094;48.820;9.226;2023-06-22T06:39:18;32.10;95.90
19864;DHT22;10094;48.820;9.226;2023-06-22T06:46:00;33.10;92.90
19864;DHT22;10094;48.820;9.226;2023-06-22T06:52:45;34.00;91.60
19864;DHT22;10094;48.820;9.226;2023-06-22T06:59:27;35.20;90.70
19864;DHT22;10094;48.820;9.226;2023-06-22T07:06:11;36.40;86.90
19864;DHT22;10094;48.820;9.226;2023-06-22T07:12:53;36.50;86.50
19864;DHT22;10094;48.820;9.226;2023-06-22T07:19:36;37.10;84.60
19864;DHT22;10094;48.820;9.226;2023-06-22T07:26:18;37.70;82.70
19864;DHT22;10094;48.820;9.226;2023-06-22T07:33:01;37.80;80.70
19864;DHT22;10094;48.820;9.226;2023-06-22T07:39:45;36.60;81.80
19864;DHT22;10094;48.820;9.226;2023-06-22T07:46:28;38.90;79.50
19864;DHT22;10094;48.820;9.226;2023-06-22T07:53:12;40.50;76.60
19864;DHT22;10094;48.820;9.226;2023-06-22T07:59:54;38.60;75.60
19864;DHT22;10094;48.820;9.226;2023-06-22T08:06:37;38.00;76.80
19864;DHT22;10094;48.820;9.226;2023-06-22T08:13:19;38.50;75.50
19864;DHT22;10094;48.820;9.226;2023-06-22T08:20:02;38.00;75.10
19864;DHT22;10094;48.820;9.226;2023-06-22T08:26:51;37.90;75.60
19864;DHT22;10094;48.820;9.226;2023-06-22T08:33:34;36.20;76.30
19864;DHT22;10094;48.820;9.226;2023-06-22T08:40:16;34.60;79.40
19864;DHT22;10094;48.820;9.226;2023-06-22T08:46:59;35.50;79.00
19864;DHT22;10094;48.820;9.226;2023-06-22T08:53:41;35.70;79.00
19864;DHT22;10094;48.820;9.226;2023-06-22T09:00:24;37.50;76.90
19864;DHT22;10094;48.820;9.226;2023-06-22T09:07:06;35.90;77.90
19864;DHT22;10094;48.820;9.226;2023-06-22T09:13:49;37.80;76.80
19864;DHT22;10094;48.820;9.226;2023-06-22T09:20:31;36.90;76.80
19864;DHT22;10094;48.820;9.226;2023-06-22T09:27:14;35.50;78.40
19864;DHT22;10094;48.820;9.226;2023-06-22T09:33:56;36.40;78.60
19864;DHT22;10094;48.820;9.226;2023-06-22T09:40:39;39.50;74.10
19864;DHT22;10094;48.820;9.226;2023-06-22T09:47:22;40.40;72.00
19864;DHT22;10094;48.820;9.226;2023-06-22T09:54:04;39.60;72.40
19864;DHT22;10094;48.820;9.226;2023-06-22T10:00:47;40.30;71.50
19864;DHT22;10094;48.820;9.226;2023-06-22T10:07:29;39.40;71.20
19864;DHT22;10094;48.820;9.226;2023-06-22T10:14:14;38.90;72.00
19864;DHT22;10094;48.820;9.226;2023-06-22T10:21:02;37.20;72.40
19864;DHT22;10094;48.820;9.226;2023-06-22T10:27:45;35.60;74.80
19864;DHT22;10094;48.820;9.226;2023-06-22T10:34:27;36.00;76.10
19864;DHT22;10094;48.820;9.226;2023-06-22T10:41:09;35.90;76.40
19864;DHT22;10094;48.820;9.226;2023-06-22T10:47:52;34.80;77.20
19864;DHT22;10094;48.820;9.226;2023-06-22T10:54:38;35.90;76.70
19864;DHT22;10094;48.820;9.226;2023-06-22T11:01:20;37.50;74.90
19864;DHT22;10094;48.820;9.226;2023-06-22T11:08:17;36.90;75.40
19864;DHT22;10094;48.820;9.226;2023-06-22T11:14:59;35.30;77.20
19864;DHT22;10094;48.820;9.226;2023-06-22T11:21:42;35.80;77.20
19864;DHT22;10094;48.820;9.226;2023-06-22T11:28:24;35.90;77.00
19864;DHT22;10094;48.820;9.226;2023-06-22T11:35:07;36.20;77.00
19864;DHT22;10094;48.820;9.226;2023-06-22T11:41:49;35.90;76.40
19864;DHT22;10094;48.820;9.226;2023-06-22T11:48:32;35.50;76.70
19864;DHT22;10094;48.820;9.226;2023-06-22T11:55:15;35.70;76.70
19864;DHT22;10094;48.820;9.226;2023-06-22T12:01:58;36.00;77.40
19864;DHT22;10094;48.820;9.226;2023-06-22T12:08:40;36.10;77.00
19864;DHT22;10094;48.820;9.226;2023-06-22T12:15:23;36.20;77.60
19864;DHT22;10094;48.820;9.226;2023-06-22T12:22:05;36.20;77.10
19864;DHT22;10094;48.820;9.226;2023-06-22T12:28:48;35.40;77.40
19864;DHT22;10094;48.820;9.226;2023-06-22T12:35:30;35.50;77.30
19864;DHT22;10094;48.820;9.226;2023-06-22T12:42:13;35.30;77.30
19864;DHT22;10094;48.820;9.226;2023-06-22T12:48:55;35.40;77.40
19864;DHT22;10094;48.820;9.226;2023-06-22T12:55:38;35.20;77.50
19864;DHT22;10094;48.820;9.226;2023-06-22T13:02:20;34.50;77.30
19864;DHT22;10094;48.820;9.226;2023-06-22T13:09:03;34.20;78.70
19864;DHT22;10094;48.820;9.226;2023-06-22T13:15:50;33.90;79.00
19864;DHT22;10094;48.820;9.226;2023-06-22T13:22:34;33.90;80.80
19864;DHT22;10094;48.820;9.226;2023-06-22T13:29:22;34.00;81.20
19864;DHT22;10094;48.820;9.226;2023-06-22T13:36:05;34.50;81.20
19864;DHT22;10094;48.820;9.226;2023-06-22T13:42:48;35.20;79.50
19864;DHT22;10094;48.820;9.226;2023-06-22T13:49:30;35.30;78.70
19864;DHT22;10094;48.820;9.226;2023-06-22T13:56:13;34.70;79.60
19864;DHT22;10094;48.820;9.226;2023-06-22T14:02:56;35.20;78.90
19864;DHT22;10094;48.820;9.226;2023-06-22T14:09:38;35.20;79.00
19864;DHT22;10094;48.820;9.226;2023-06-22T14:16:21;35.30;79.70
19864;DHT22;10094;48.820;9.226;2023-06-22T14:23:03;35.50;79.00
19864;DHT22;10094;48.820;9.226;2023-06-22T14:29:46;35.90;76.40
19864;DHT22;10094;48.820;9.226;2023-06-22T14:36:29;35.90;74.70
19864;DHT22;10094;48.820;9.226;2023-06-22T14:43:11;35.60;74.60
19864;DHT22;10094;48.820;9.226;2023-06-22T14:49:54;35.70;74.60
19864;DHT22;10094;48.820;9.226;2023-06-22T14:56:37;35.70;74.00
19864;DHT22;10094;48.820;9.226;2023-06-22T15:03:19;35.60;75.00
19864;DHT22;10094;48.820;9.226;2023-06-22T15:10:08;35.20;75.40
19864;DHT22;10094;48.820;9.226;2023-06-22T15:16:50;34.80;73.60
19864;DHT22;10094;48.820;9.226;2023-06-22T15:23:33;34.70;69.50
19864;DHT22;10094;48.820;9.226;2023-06-22T15:30:16;34.80;67.50
19864;DHT22;10094;48.820;9.226;2023-06-22T15:36:59;35.10;66.50
19864;DHT22;10094;48.820;9.226;2023-06-22T15:43:41;34.70;66.00
19864;DHT22;10094;48.820;9.226;2023-06-22T15:50:24;34.40;66.30
19864;DHT22;10094;48.820;9.226;2023-06-22T15:57:06;34.60;66.60
19864;DHT22;10094;48.820;9.226;2023-06-22T16:03:52;34.90;65.50
19864;DHT22;10094;48.820;9.226;2023-06-22T16:10:34;34.70;65.30
19864;DHT22;10094;48.820;9.226;2023-06-22T16:17:16;34.50;65.90
19864;DHT22;10094;48.820;9.226;2023-06-22T16:23:59;34.20;66.00
19864;DHT22;10094;48.820;9.226;2023-06-22T16:30:41;33.40;66.00
19864;DHT22;10094;48.820;9.226;2023-06-22T16:37:24;33.20;65.80
19864;DHT22;10094;48.820;9.226;2023-06-22T16:44:06;33.20;66.20
19864;DHT22;10094;48.820;9.226;2023-06-22T16:50:49;33.10;66.60
19864;DHT22;10094;48.820;9.226;2023-06-22T16:57:31;33.00;67.30
19864;DHT22;10094;48.820;9.226;2023-06-22T17:04:16;32.90;67.40
19864;DHT22;10094;48.820;9.226;2023-06-22T17:11:01;32.60;68.00
19864;DHT22;10094;48.820;9.226;2023-06-22T17:17:44;32.20;68.70
19864;DHT22;10094;48.820;9.226;2023-06-22T17:24:27;32.10;69.00
19864;DHT22;10094;48.820;9.226;2023-06-22T17:31:10;31.70;69.80
19864;DHT22;10094;48.820;9.226;2023-06-22T17:37:55;31.50;69.60
19864;DHT22;10094;48.820;9.226;2023-06-22T17:44:37;31.30;69.30
19864;DHT22;10094;48.820;9.226;2023-06-22T17:51:20;31.00;69.60
19864;DHT22;10094;48.820;9.226;2023-06-22T17:58:03;30.80;70.10
19864;DHT22;10094;48.820;9.226;2023-06-22T18:04:46;30.40;70.30
19864;DHT22;10094;48.820;9.226;2023-06-22T18:11:32;30.20;70.80
19864;DHT22;10094;48.820;9.226;2023-06-22T18:18:16;30.00;71.90
19864;DHT22;10094;48.820;9.226;2023-06-22T18:25:01;29.60;72.10
19864;DHT22;10094;48.820;9.226;2023-06-22T18:31:44;29.10;73.10
19864;DHT22;10094;48.820;9.226;2023-06-22T18:38:28;28.60;74.20
19864;DHT22;10094;48.820;9.226;2023-06-22T18:52:15;28.00;76.00
19864;DHT22;10094;48.820;9.226;2023-06-22T18:58:58;28.00;76.80
19864;DHT22;10094;48.820;9.226;2023-06-22T19:05:42;27.90;77.70
19864;DHT22;10094;48.820;9.226;2023-06-22T19:12:25;27.50;79.70
19864;DHT22;10094;48.820;9.226;2023-06-22T19:19:12;27.40;80.40
19864;DHT22;10094;48.820;9.226;2023-06-22T19:25:56;27.40;80.60
19864;DHT22;10094;48.820;9.226;2023-06-22T19:32:43;27.30;81.60
19864;DHT22;10094;48.820;9.226;2023-06-22T19:39:34;26.70;84.70
19864;DHT22;10094;48.820;9.226;2023-06-22T19:46:25;26.40;86.80
19864;DHT22;10094;48.820;9.226;2023-06-22T19:53:11;26.30;88.60
19864;DHT22;10094;48.820;9.226;2023-06-22T19:59:54;26.30;89.40
19864;DHT22;10094;48.820;9.226;2023-06-22T20:06:37;26.20;90.70
19864;DHT22;10094;48.820;9.226;2023-06-22T20:13:20;26.00;92.00
19864;DHT22;10094;48.820;9.226;2023-06-22T20:20:03;25.90;93.20
19864;DHT22;10094;48.820;9.226;2023-06-22T20:26:46;25.80;94.50
19864;DHT22;10094;48.820;9.226;2023-06-22T20:33:29;25.80;95.10
19864;DHT22;10094;48.820;9.226;2023-06-22T20:40:12;25.60;98.00
19864;DHT22;10094;48.820;9.226;2023-06-22T20:46:55;25.50;99.90
19864;DHT22;10094;48.820;9.226;2023-06-22T20:53:37;25.40;99.90
19864;DHT22;10094;48.820;9.226;2023-06-22T21:00:21;25.30;99.90
19864;DHT22;10094;48.820;9.226;2023-06-22T21:07:04;25.20;99.90
19864;DHT22;10094;48.820;9.226;2023-06-22T21:13:47;25.10;99.90
19864;DHT22;10094;48.820;9.226;2023-06-22T21:20:29;24.60;99.90
19864;DHT22;10094;48.820;9.226;2023-06-22T21:27:12;24.40;99.90
19864;DHT22;10094;48.820;9.226;2023-06-22T21:33:54;24.30;99.90
19864;DHT22;10094;48.820;9.226;2023-06-22T21:40:37;24.10;99.90
19864;DHT22;10094;48.820;9.226;2023-06-22T21:47:19;23.90;99.90
19864;DHT22;10094;48.820;9.226;2023-06-22T21:54:01;23.70;99.90
19864;DHT22;10094;48.820;9.226;2023-06-22T22:07:27;23.30;99.90
19864;DHT22;10094;48.820;9.226;2023-06-22T22:14:12;23.40;99.90
19864;DHT22;10094;48.820;9.226;2023-06-22T22:20:55;23.20;99.90
19864;DHT22;10094;48.820;9.226;2023-06-22T22:27:37;23.20;99.90
19864;DHT22;10094;48.820;9.226;2023-06-22T22:34:20;23.20;99.90
19864;DHT22;10094;48.820;9.226;2023-06-22T22:41:02;23.20;99.90
19864;DHT22;10094;48.820;9.226;2023-06-22T22:47:45;23.10;99.90
19864;DHT22;10094;48.820;9.226;2023-06-22T22:54:27;23.00;99.90
19864;DHT22;10094;48.820;9.226;2023-06-22T23:01:10;23.00;99.90
19864;DHT22;10094;48.820;9.226;2023-06-22T23:07:52;23.00;99.90
19864;DHT22;10094;48.820;9.226;2023-06-22T23:14:35;22.90;99.90
19864;DHT22;10094;48.820;9.226;2023-06-22T23:21:17;23.10;99.90
19864;DHT22;10094;48.820;9.226;2023-06-22T23:28:00;23.00;99.90
19864;DHT22;10094;48.820;9.226;2023-06-22T23:34:42;23.10;99.90
19864;DHT22;10094;48.820;9.226;2023-06-22T23:41:26;23.00;99.90
19864;DHT22;10094;48.820;9.226;2023-06-22T23:48:09;23.00;99.90
19864;DHT22;10094;48.820;9.226;2023-06-22T23:54:53;23.00;99.90
